Time;durP1;ratioP1;P1;durP2;ratioP2;P2;SDS_P1;SDS_P2;PMS_P1;PMS_P2;Temp;Humidity;BMP_temperature;BMP_pressure;BME280_temperature;BME280_humidity;BME280_pressure;Samples;Min_cycle;Max_cycle;Signal;HPM_P1;HPM_P2
2021/09/27 00:00:29;;;;;;;14.57;12.40;;;17.10;99.90;;;;;;5090988;28;20265;-59
2021/09/27 00:02:57;;;;;;;14.87;12.83;;;17.10;99.90;;;;;;5090580;28;20220;-58
2021/09/27 00:05:25;;;;;;;15.33;13.73;;;17.10;99.90;;;;;;5090460;28;20729;-58
2021/09/27 00:07:51;;;;;;;13.57;12.17;;;17.00;99.90;;;;;;5090661;28;20262;-58
2021/09/27 00:10:22;;;;;;;14.30;12.67;;;17.00;99.90;;;;;;5090787;28;20208;-60
2021/09/27 00:12:49;;;;;;;14.87;13.00;;;17.00;99.90;;;;;;5090575;28;20303;-58
2021/09/27 00:15:21;;;;;;;14.70;13.10;;;16.90;99.90;;;;;;5090408;28;20587;-61
2021/09/27 00:17:48;;;;;;;16.37;12.67;;;16.80;99.90;;;;;;5090283;28;20211;-59
2021/09/27 00:20:16;;;;;;;13.60;11.93;;;16.80;99.90;;;;;;5093354;28;20261;-60
2021/09/27 00:22:43;;;;;;;15.73;12.75;;;16.70;99.90;;;;;;5094193;28;20608;-59
2021/09/27 00:25:11;;;;;;;14.07;12.57;;;16.70;99.90;;;;;;5094183;28;20219;-58
2021/09/27 00:27:38;;;;;;;16.37;12.90;;;16.70;99.90;;;;;;5094465;28;20204;-59
2021/09/27 00:30:06;;;;;;;14.73;13.20;;;16.70;99.90;;;;;;5094125;28;20223;-61
2021/09/27 00:32:33;;;;;;;14.00;12.47;;;16.60;99.90;;;;;;5094281;28;20228;-59
2021/09/27 00:35:00;;;;;;;13.60;12.07;;;16.70;99.90;;;;;;5093990;28;20212;-60
2021/09/27 00:37:28;;;;;;;13.30;11.83;;;16.60;99.90;;;;;;5094180;28;20208;-59
2021/09/27 00:39:55;;;;;;;13.80;12.30;;;16.60;99.90;;;;;;5093959;28;20235;-59
2021/09/27 00:42:22;;;;;;;14.47;12.17;;;16.50;99.90;;;;;;5093783;28;20228;-60
2021/09/27 00:44:48;;;;;;;15.17;12.17;;;16.40;99.90;;;;;;5093747;28;20215;-59
2021/09/27 00:47:15;;;;;;;14.93;11.60;;;16.40;99.90;;;;;;5094061;28;20200;-60
2021/09/27 00:49:42;;;;;;;13.87;12.57;;;16.30;99.90;;;;;;5093866;28;20208;-61
2021/09/27 00:52:09;;;;;;;14.83;12.10;;;16.30;99.90;;;;;;5093738;28;20201;-61
2021/09/27 00:54:38;;;;;;;14.33;12.10;;;16.20;99.90;;;;;;5093606;28;20231;-59
2021/09/27 00:57:11;;;;;;;14.13;12.73;;;16.30;99.90;;;;;;5093544;28;20208;-60
2021/09/27 00:59:40;;;;;;;15.87;13.30;;;16.20;99.90;;;;;;5093785;28;20208;-60
2021/09/27 01:02:08;;;;;;;13.77;12.37;;;16.30;99.90;;;;;;5093635;28;20233;-61
2021/09/27 01:04:35;;;;;;;14.20;12.70;;;16.40;99.90;;;;;;5093306;28;20228;-59
2021/09/27 01:07:25;;;;;;;14.67;11.90;;;16.40;99.90;;;;;;5093411;28;20212;-59
2021/09/27 01:10:29;;;;;;;14.23;12.33;;;16.50;99.90;;;;;;5093350;28;20618;-59
2021/09/27 01:13:26;;;;;;;14.27;12.57;;;16.60;99.90;;;;;;5011152;28;20253;-60
2021/09/27 01:16:01;;;;;;;14.33;12.60;;;16.60;99.90;;;;;;5093322;28;20236;-58
2021/09/27 01:18:39;;;;;;;13.10;11.70;;;16.60;99.90;;;;;;5093217;28;20597;-60
2021/09/27 01:21:44;;;;;;;14.50;11.90;;;16.60;99.90;;;;;;5093176;28;20227;-61
2021/09/27 01:25:06;;;;;;;14.63;11.30;;;16.60;99.90;;;;;;5093075;28;20224;-59
2021/09/27 01:27:56;;;;;;;13.13;11.83;;;16.50;99.90;;;;;;5093109;28;20341;-59
2021/09/27 01:30:56;;;;;;;14.40;12.23;;;16.50;99.90;;;;;;5092132;28;20585;-59
2021/09/27 01:33:31;;;;;;;14.90;12.30;;;16.50;99.90;;;;;;5093019;28;20303;-59
2021/09/27 01:36:08;;;;;;;13.77;12.37;;;16.50;99.90;;;;;;5092981;28;20204;-60
2021/09/27 01:38:42;;;;;;;13.20;11.90;;;16.50;99.90;;;;;;5092650;28;20675;-61
2021/09/27 01:41:22;;;;;;;13.87;12.37;;;16.50;99.90;;;;;;5092671;28;20227;-59
2021/09/27 01:43:54;;;;;;;13.30;11.90;;;16.50;99.90;;;;;;5092674;28;20224;-60
2021/09/27 01:46:29;;;;;;;13.53;12.13;;;16.60;99.90;;;;;;5092904;28;20621;-59
2021/09/27 01:49:00;;;;;;;13.37;11.97;;;16.60;99.90;;;;;;5092501;28;20211;-60
2021/09/27 01:51:38;;;;;;;14.47;12.83;;;16.70;99.90;;;;;;5092622;28;20204;-59
2021/09/27 01:54:14;;;;;;;12.60;11.30;;;16.80;99.90;;;;;;5092684;28;20244;-61
2021/09/27 01:57:05;;;;;;;14.40;12.17;;;16.80;99.90;;;;;;5092541;28;20212;-59
2021/09/27 01:59:39;;;;;;;14.27;12.60;;;16.70;99.90;;;;;;5092325;28;20591;-60
2021/09/27 02:02:10;;;;;;;13.23;11.93;;;16.60;99.90;;;;;;5092641;28;20593;-59
2021/09/27 02:04:52;;;;;;;13.90;11.67;;;16.40;99.90;;;;;;5092352;28;20200;-60
2021/09/27 02:07:21;;;;;;;14.00;12.50;;;16.40;99.90;;;;;;5092464;28;20208;-59
2021/09/27 02:09:55;;;;;;;13.97;12.57;;;16.40;99.90;;;;;;5092184;28;20204;-61
2021/09/27 02:12:26;;;;;;;14.77;12.00;;;16.30;99.90;;;;;;5094017;28;20590;-59
2021/09/27 02:15:01;;;;;;;14.60;13.07;;;16.30;99.90;;;;;;5093878;28;20205;-61
2021/09/27 02:17:38;;;;;;;14.03;11.97;;;16.20;99.90;;;;;;5092922;28;20251;-59
2021/09/27 02:20:11;;;;;;;15.53;12.20;;;16.20;99.90;;;;;;5092034;28;20211;-59
2021/09/27 02:22:42;;;;;;;14.87;12.60;;;16.20;99.90;;;;;;5091790;28;20228;-59
2021/09/27 02:25:14;;;;;;;14.43;12.97;;;16.20;99.90;;;;;;5092217;28;20212;-60
2021/09/27 02:27:42;;;;;;;16.77;12.80;;;16.20;99.90;;;;;;5092042;28;20212;-60
2021/09/27 02:30:13;;;;;;;14.10;12.43;;;16.20;99.90;;;;;;5092221;28;20295;-62
2021/09/27 02:32:46;;;;;;;14.17;12.67;;;16.20;99.90;;;;;;5092260;28;20220;-60
2021/09/27 02:35:19;;;;;;;14.97;12.97;;;16.10;99.90;;;;;;5091724;28;20200;-62
2021/09/27 02:37:55;;;;;;;14.27;12.80;;;16.10;99.90;;;;;;5091952;28;20207;-59
2021/09/27 02:40:28;;;;;;;14.03;12.63;;;16.20;99.90;;;;;;5091972;28;20207;-59
2021/09/27 02:42:57;;;;;;;14.87;12.70;;;16.10;99.90;;;;;;5091762;28;20231;-60
2021/09/27 02:45:26;;;;;;;14.37;12.87;;;16.10;99.90;;;;;;5091571;28;20208;-60
2021/09/27 02:47:58;;;;;;;17.37;13.43;;;16.20;99.90;;;;;;5091696;28;20513;-58
2021/09/27 02:50:29;;;;;;;14.43;12.70;;;16.40;99.90;;;;;;5091771;28;20219;-59
2021/09/27 02:52:56;;;;;;;13.07;11.67;;;16.50;99.90;;;;;;5091639;28;20220;-61
2021/09/27 02:55:31;;;;;;;14.20;12.40;;;16.60;99.90;;;;;;5091260;28;20212;-59
2021/09/27 02:58:17;;;;;;;13.47;12.03;;;16.70;99.90;;;;;;5091215;28;20253;-60
2021/09/27 03:00:54;;;;;;;14.07;12.70;;;16.70;99.90;;;;;;5091259;28;20676;-59
2021/09/27 03:03:31;;;;;;;15.03;12.27;;;16.70;99.90;;;;;;5091187;28;20219;-58
2021/09/27 03:06:11;;;;;;;14.77;12.80;;;16.60;99.90;;;;;;5091262;28;20211;-61
2021/09/27 03:08:54;;;;;;;13.63;12.23;;;16.60;99.90;;;;;;5090974;28;20672;-60
2021/09/27 03:11:53;;;;;;;13.10;11.77;;;16.60;99.90;;;;;;5091432;28;20200;-60
2021/09/27 03:14:35;;;;;;;15.77;12.90;;;16.60;99.90;;;;;;5084006;28;20314;-60
2021/09/27 03:17:08;;;;;;;12.80;11.37;;;16.60;99.90;;;;;;5091505;28;20443;-60
2021/09/27 03:20:00;;;;;;;14.63;12.53;;;16.70;99.90;;;;;;5091103;28;20265;-61
2021/09/27 03:22:36;;;;;;;13.73;12.27;;;16.70;99.90;;;;;;5091052;28;20703;-60
2021/09/27 03:25:20;;;;;;;13.60;12.10;;;16.70;99.90;;;;;;5090900;28;20204;-59
2021/09/27 03:27:56;;;;;;;13.07;11.77;;;16.80;99.90;;;;;;5091032;28;20204;-60
2021/09/27 03:30:32;;;;;;;15.83;14.23;;;16.80;99.90;;;;;;5091236;28;20212;-59
2021/09/27 03:33:05;;;;;;;14.47;12.53;;;16.80;99.90;;;;;;5090967;28;20219;-61
2021/09/27 03:35:49;;;;;;;13.97;12.37;;;16.90;99.90;;;;;;5090846;28;20598;-61
2021/09/27 03:38:24;;;;;;;14.20;12.80;;;16.90;99.90;;;;;;5090995;28;20307;-61
2021/09/27 03:41:02;;;;;;;13.60;11.83;;;16.90;99.90;;;;;;5091097;28;20211;-60
2021/09/27 03:43:37;;;;;;;15.30;13.70;;;17.00;99.90;;;;;;5090637;28;20637;-60
2021/09/27 03:46:17;;;;;;;22.67;18.13;;;17.00;99.90;;;;;;5091053;28;20422;-57
2021/09/27 03:48:50;;;;;;;15.90;13.20;;;17.00;99.90;;;;;;5091210;28;20207;-58
2021/09/27 03:51:20;;;;;;;13.43;11.53;;;17.00;99.90;;;;;;5091336;28;20204;-58
2021/09/27 03:53:52;;;;;;;13.20;11.90;;;17.00;99.90;;;;;;5091191;28;20726;-58
2021/09/27 03:56:25;;;;;;;13.67;12.30;;;17.10;99.90;;;;;;5094872;28;20212;-60
2021/09/27 03:58:58;;;;;;;13.07;11.77;;;17.10;99.90;;;;;;5094737;28;20233;-59
2021/09/27 04:01:36;;;;;;;15.87;12.63;;;17.00;99.90;;;;;;5094779;28;20256;-59
2021/09/27 04:04:20;;;;;;;12.40;11.10;;;17.00;99.90;;;;;;5094646;28;20602;-61
2021/09/27 04:07:07;;;;;;;13.03;11.73;;;17.00;99.90;;;;;;5094454;28;20283;-58
2021/09/27 04:09:44;;;;;;;13.10;11.80;;;17.00;99.90;;;;;;5094726;28;20239;-59
2021/09/27 04:12:20;;;;;;;16.93;15.20;;;17.00;99.90;;;;;;5094447;28;20200;-60
2021/09/27 04:15:02;;;;;;;14.20;12.70;;;17.00;99.90;;;;;;5117354;22;20230;-64
2021/09/27 04:17:43;;;;;;;14.47;12.97;;;17.00;99.90;;;;;;5094893;28;20216;-64
2021/09/27 04:20:18;;;;;;;13.00;11.70;;;16.90;99.90;;;;;;5094692;28;20215;-64
2021/09/27 04:22:52;;;;;;;12.23;11.00;;;16.90;99.90;;;;;;5094479;28;20250;-64
2021/09/27 04:25:29;;;;;;;12.07;10.83;;;16.90;99.90;;;;;;5094630;28;20203;-64
2021/09/27 04:28:21;;;;;;;12.53;10.73;;;16.90;99.90;;;;;;5094404;28;20227;-64
2021/09/27 04:31:08;;;;;;;11.73;10.53;;;16.90;99.90;;;;;;5093976;28;20220;-64
2021/09/27 04:33:59;;;;;;;15.27;10.10;;;16.80;99.90;;;;;;5094119;28;20619;-65
2021/09/27 04:36:29;;;;;;;13.13;10.87;;;16.80;99.90;;;;;;5056909;28;20207;-65
2021/09/27 04:38:58;;;;;;;12.00;10.80;;;16.70;99.90;;;;;;5094420;28;20200;-65
2021/09/27 04:41:46;;;;;;;12.10;10.90;;;16.50;99.90;;;;;;5094280;28;20220;-64
2021/09/27 04:44:24;;;;;;;14.30;11.87;;;16.40;99.90;;;;;;5093807;28;20224;-64
2021/09/27 04:47:02;;;;;;;14.10;12.17;;;16.30;99.90;;;;;;5094284;28;20204;-64
2021/09/27 04:49:46;;;;;;;13.53;12.13;;;16.10;99.90;;;;;;5094127;28;20216;-64
2021/09/27 04:52:19;;;;;;;13.77;12.30;;;16.10;99.90;;;;;;5094536;28;20203;-64
2021/09/27 04:55:06;;;;;;;14.33;12.37;;;15.90;99.90;;;;;;5093769;28;20235;-64
2021/09/27 04:57:52;;;;;;;13.67;11.57;;;15.80;99.90;;;;;;5094420;28;20371;-64
2021/09/27 05:00:31;;;;;;;15.83;13.00;;;15.80;99.90;;;;;;5094227;28;20212;-64
2021/09/27 05:03:31;;;;;;;15.23;13.40;;;15.70;99.90;;;;;;5093754;28;20228;-64
2021/09/27 05:06:31;;;;;;;13.90;12.40;;;15.70;99.90;;;;;;5093221;28;20255;-65
2021/09/27 05:09:10;;;;;;;15.67;13.63;;;15.60;99.90;;;;;;5046081;28;20257;-65
2021/09/27 05:12:16;;;;;;;15.33;13.53;;;15.60;99.90;;;;;;5093774;28;20208;-62
2021/09/27 05:14:57;;;;;;;15.53;12.80;;;15.60;99.90;;;;;;5093480;28;20232;-62
2021/09/27 05:17:40;;;;;;;23.13;16.57;;;15.40;99.90;;;;;;5093542;28;20204;-62
2021/09/27 05:20:24;;;;;;;15.43;13.70;;;15.40;99.90;;;;;;5093605;28;20588;-62
2021/09/27 05:23:02;;;;;;;17.00;14.70;;;15.50;99.90;;;;;;5093047;28;20594;-62
2021/09/27 05:26:03;;;;;;;14.87;13.17;;;15.50;99.90;;;;;;5093420;28;20265;-62
2021/09/27 05:28:43;;;;;;;23.00;14.73;;;15.60;99.90;;;;;;5093151;28;20208;-62
2021/09/27 05:31:32;;;;;;;14.43;12.77;;;15.60;99.90;;;;;;5093031;28;20205;-62
2021/09/27 05:34:13;;;;;;;16.00;14.30;;;15.50;99.90;;;;;;5093295;28;20261;-62
2021/09/27 05:36:57;;;;;;;15.13;13.47;;;15.40;99.90;;;;;;5092822;28;20623;-62
2021/09/27 05:39:38;;;;;;;16.00;12.87;;;15.40;99.90;;;;;;5093550;28;20215;-62
2021/09/27 05:42:14;;;;;;;16.03;12.20;;;15.40;99.90;;;;;;5092860;28;20235;-62
2021/09/27 05:44:53;;;;;;;14.27;12.60;;;15.50;99.90;;;;;;5092573;28;20224;-62
2021/09/27 05:47:32;;;;;;;13.70;11.97;;;15.50;99.90;;;;;;5092667;28;20733;-61
2021/09/27 05:50:07;;;;;;;13.00;11.53;;;15.50;99.90;;;;;;5092771;28;20212;-61
2021/09/27 05:52:42;;;;;;;13.90;11.73;;;15.60;99.90;;;;;;5092907;28;20215;-61
2021/09/27 05:55:21;;;;;;;13.77;11.43;;;15.60;99.90;;;;;;5092372;28;20222;-61
2021/09/27 05:57:52;;;;;;;13.43;11.57;;;15.60;99.90;;;;;;5092528;28;20215;-61
2021/09/27 06:00:26;;;;;;;11.80;10.40;;;15.50;99.90;;;;;;5092822;28;20208;-61
2021/09/27 06:03:12;;;;;;;15.97;12.23;;;15.50;99.90;;;;;;5092211;28;20729;-61
2021/09/27 06:05:45;;;;;;;12.07;10.80;;;15.40;99.90;;;;;;5092057;28;20208;-61
2021/09/27 06:08:17;;;;;;;12.37;11.07;;;15.40;99.90;;;;;;5092354;28;20204;-61
2021/09/27 06:10:50;;;;;;;12.87;10.23;;;15.30;99.90;;;;;;5092193;28;20211;-61
2021/09/27 06:13:23;;;;;;;12.97;11.03;;;15.30;99.90;;;;;;5091911;28;20240;-61
2021/09/27 06:15:52;;;;;;;12.40;11.10;;;15.30;99.90;;;;;;5092074;28;20208;-61
2021/09/27 06:18:48;;;;;;;14.37;11.27;;;15.50;99.90;;;;;;5091801;28;20291;-62
2021/09/27 06:21:34;;;;;;;18.97;15.60;;;15.80;99.90;;;;;;5091990;28;20204;-61
2021/09/27 06:24:14;;;;;;;12.63;11.20;;;16.30;99.90;;;;;;5091656;28;20235;-62
2021/09/27 06:26:51;;;;;;;14.23;9.87;;;17.50;99.90;;;;;;5092167;28;20580;-62
2021/09/27 06:29:23;;;;;;;12.05;10.75;;;18.90;99.90;;;;;;5091801;28;20214;-62
2021/09/27 06:31:58;;;;;;;9.15;7.30;;;20.10;99.90;;;;;;5091917;28;20586;-62
2021/09/27 06:34:32;;;;;;;9.65;7.80;;;21.10;99.90;;;;;;5091914;28;20235;-62
2021/09/27 06:37:01;;;;;;;8.38;6.30;;;22.00;99.90;;;;;;5091677;28;20230;-62
2021/09/27 06:39:29;;;;;;;8.65;6.53;;;22.70;99.90;;;;;;5091606;28;20211;-62
2021/09/27 06:41:57;;;;;;;7.45;6.75;;;23.20;99.90;;;;;;5091443;28;20235;-62
2021/09/27 06:44:24;;;;;;;6.70;5.75;;;23.90;99.90;;;;;;5091164;28;20235;-63
2021/09/27 06:46:51;;;;;;;6.68;6.05;;;24.40;99.90;;;;;;5091444;28;20270;-63
2021/09/27 06:49:18;;;;;;;7.05;5.90;;;24.60;99.90;;;;;;5091351;28;20215;-63
2021/09/27 06:51:47;;;;;;;8.15;6.63;;;25.20;99.90;;;;;;5091693;28;20204;-63
2021/09/27 06:54:16;;;;;;;11.18;6.60;;;25.70;99.90;;;;;;5091380;28;20223;-63
2021/09/27 06:56:45;;;;;;;6.50;5.78;;;26.00;99.90;;;;;;5091523;28;20208;-63
2021/09/27 06:59:12;;;;;;;11.38;6.50;;;26.20;99.90;;;;;;5091404;28;20204;-63
2021/09/27 07:01:40;;;;;;;6.20;5.60;;;26.10;99.90;;;;;;5091563;28;20204;-63
2021/09/27 07:04:07;;;;;;;16.65;7.07;;;26.00;99.90;;;;;;5090942;28;20240;-63
2021/09/27 07:06:33;;;;;;;12.63;6.38;;;25.70;99.90;;;;;;5091632;28;20212;-63
2021/09/27 07:09:01;;;;;;;7.15;6.22;;;25.50;99.90;;;;;;5091158;28;20253;-63
2021/09/27 07:11:28;;;;;;;6.47;5.78;;;25.20;99.90;;;;;;5091314;28;20262;-63
2021/09/27 07:13:55;;;;;;;7.68;6.20;;;24.80;99.90;;;;;;5091021;28;20231;-63
2021/09/27 07:16:22;;;;;;;7.25;6.55;;;24.50;99.90;;;;;;5090601;28;20649;-63
2021/09/27 07:18:48;;;;;;;7.32;5.78;;;24.60;99.90;;;;;;5091013;28;20208;-63
2021/09/27 07:21:15;;;;;;;6.85;5.78;;;24.70;99.90;;;;;;5090879;28;20208;-63
2021/09/27 07:23:42;;;;;;;6.00;5.40;;;24.90;99.90;;;;;;5080084;28;20235;-65
2021/09/27 07:26:11;;;;;;;6.97;5.90;;;25.40;99.90;;;;;;5070638;28;20236;-64
2021/09/27 07:28:39;;;;;;;6.22;5.63;;;26.00;99.90;;;;;;5069949;28;20204;-65
2021/09/27 07:31:06;;;;;;;8.20;5.75;;;26.80;99.90;;;;;;5070549;28;20216;-65
2021/09/27 07:33:34;;;;;;;5.38;4.88;;;27.20;99.90;;;;;;5070611;28;20253;-65
2021/09/27 07:36:01;;;;;;;6.85;5.97;;;27.30;99.90;;;;;;5070907;28;20212;-65
2021/09/27 07:38:28;;;;;;;6.60;5.57;;;27.30;99.90;;;;;;5070810;28;20212;-62
2021/09/27 07:40:55;;;;;;;6.38;5.78;;;27.00;99.90;;;;;;5071095;28;20212;-64
2021/09/27 07:43:23;;;;;;;9.52;5.88;;;26.50;99.90;;;;;;5070936;28;20587;-65
2021/09/27 07:45:50;;;;;;;7.32;5.50;;;25.90;99.90;;;;;;5070740;28;20212;-65
2021/09/27 07:48:17;;;;;;;7.85;6.53;;;25.20;99.90;;;;;;5070405;28;20211;-65
2021/09/27 07:50:47;;;;;;;7.05;5.70;;;24.40;99.90;;;;;;5070878;28;20213;-65
2021/09/27 07:53:15;;;;;;;6.45;5.55;;;23.60;99.90;;;;;;5070493;28;20221;-65
2021/09/27 07:55:43;;;;;;;9.63;6.75;;;22.90;99.90;;;;;;5070403;28;20205;-64
2021/09/27 07:58:10;;;;;;;7.72;6.32;;;22.50;99.90;;;;;;5070574;28;20208;-64
2021/09/27 08:00:39;;;;;;;6.78;6.18;;;22.20;99.90;;;;;;5070949;28;20228;-64
2021/09/27 08:03:05;;;;;;;8.18;6.22;;;21.90;99.90;;;;;;5070591;28;20240;-61
2021/09/27 08:05:34;;;;;;;12.57;7.05;;;21.60;99.90;;;;;;5070467;28;20209;-62
2021/09/27 08:08:02;;;;;;;8.02;6.72;;;21.40;99.90;;;;;;5070309;28;20664;-62
2021/09/27 08:10:30;;;;;;;7.38;6.65;;;21.30;99.90;;;;;;5070505;28;20209;-62
2021/09/27 08:12:58;;;;;;;8.68;6.35;;;21.20;99.90;;;;;;5070452;28;20244;-62
2021/09/27 08:15:28;;;;;;;7.40;6.70;;;21.20;99.90;;;;;;5070623;28;20204;-62
2021/09/27 08:17:57;;;;;;;10.75;7.10;;;21.20;99.90;;;;;;5070390;28;20572;-62
2021/09/27 08:20:26;;;;;;;7.50;6.60;;;21.20;99.90;;;;;;5070141;28;20208;-62
2021/09/27 08:22:53;;;;;;;7.60;6.15;;;21.20;99.90;;;;;;5070139;28;20205;-62
2021/09/27 08:25:21;;;;;;;9.25;6.50;;;21.30;99.90;;;;;;5069994;28;20442;-62
2021/09/27 08:27:48;;;;;;;7.72;6.75;;;21.30;99.90;;;;;;5070412;28;20586;-63
2021/09/27 08:30:18;;;;;;;6.93;6.13;;;21.30;99.90;;;;;;5070369;28;20208;-62
2021/09/27 08:32:46;;;;;;;6.80;6.20;;;21.30;99.90;;;;;;5070265;28;20232;-62
2021/09/27 08:35:15;;;;;;;6.63;6.03;;;21.30;99.90;;;;;;5070090;28;20213;-62
2021/09/27 08:37:42;;;;;;;6.95;6.25;;;21.40;99.90;;;;;;5069997;28;20707;-62
2021/09/27 08:40:11;;;;;;;8.07;6.45;;;21.30;99.90;;;;;;5071308;28;20213;-62
2021/09/27 08:42:41;;;;;;;9.00;8.10;;;21.40;99.90;;;;;;5073813;28;20205;-62
2021/09/27 08:45:12;;;;;;;8.93;6.60;;;21.40;99.90;;;;;;5073722;28;20228;-62
2021/09/27 08:47:51;;;;;;;8.07;6.20;;;21.50;99.90;;;;;;5073666;28;20213;-62
2021/09/27 08:50:31;;;;;;;5.93;5.32;;;21.60;99.90;;;;;;5073282;28;20216;-63
2021/09/27 08:53:01;;;;;;;6.53;5.75;;;21.70;99.90;;;;;;5073547;28;20321;-62
2021/09/27 08:55:30;;;;;;;6.90;5.70;;;21.70;99.90;;;;;;5073612;28;20216;-63
2021/09/27 08:58:05;;;;;;;5.63;5.13;;;21.70;99.90;;;;;;5073508;28;20251;-62
2021/09/27 09:00:39;;;;;;;6.97;5.05;;;21.80;99.90;;;;;;5073471;28;20208;-62
2021/09/27 09:03:16;;;;;;;5.22;4.72;;;21.80;99.90;;;;;;5073483;28;20700;-63
2021/09/27 09:05:49;;;;;;;5.43;4.40;;;21.80;99.90;;;;;;5073578;28;20213;-63
2021/09/27 09:08:24;;;;;;;9.90;4.82;;;21.80;99.90;;;;;;5073645;28;20459;-63
2021/09/27 09:10:56;;;;;;;6.30;4.32;;;21.90;99.90;;;;;;5073397;28;20208;-63
2021/09/27 09:13:28;;;;;;;4.90;4.45;;;22.00;99.90;;;;;;5073139;28;20225;-62
2021/09/27 09:15:58;;;;;;;7.35;4.40;;;21.90;99.90;;;;;;5073417;28;20201;-63
2021/09/27 09:18:29;;;;;;;5.60;4.40;;;22.10;99.90;;;;;;5073279;28;20216;-63
2021/09/27 09:21:02;;;;;;;4.32;3.90;;;22.10;99.90;;;;;;5073053;28;20620;-62
2021/09/27 09:23:33;;;;;;;5.65;4.25;;;22.30;99.90;;;;;;5072683;28;20603;-63
2021/09/27 09:26:01;;;;;;;5.00;4.50;;;22.40;99.90;;;;;;5073202;28;20216;-63
2021/09/27 09:28:28;;;;;;;6.53;4.88;;;22.50;99.90;;;;;;5073027;28;20209;-63
2021/09/27 09:31:04;;;;;;;6.15;4.95;;;22.60;99.90;;;;;;5073263;28;20205;-62
2021/09/27 09:33:36;;;;;;;5.97;4.97;;;22.70;99.90;;;;;;5072764;28;20323;-63
2021/09/27 09:36:05;;;;;;;7.45;5.65;;;22.60;99.90;;;;;;5072782;28;20270;-62
2021/09/27 09:38:34;;;;;;;5.93;4.68;;;22.60;99.90;;;;;;5072553;28;20673;-63
2021/09/27 09:41:02;;;;;;;7.75;4.88;;;22.80;99.90;;;;;;5072860;28;20637;-63
2021/09/27 09:43:31;;;;;;;6.47;4.97;;;23.00;99.90;;;;;;5072370;28;20257;-63
2021/09/27 09:46:07;;;;;;;6.53;4.60;;;23.20;99.90;;;;;;5072596;28;20730;-63
2021/09/27 09:48:34;;;;;;;7.75;4.70;;;23.30;99.90;;;;;;5072651;28;20553;-64
2021/09/27 09:51:22;;;;;;;7.63;5.55;;;23.40;99.90;;;;;;5072558;28;20217;-64
2021/09/27 09:54:03;;;;;;;5.10;4.68;;;23.60;99.90;;;;;;5072122;28;20233;-63
2021/09/27 09:56:33;;;;;;;6.25;4.72;;;23.80;99.90;;;;;;5072670;28;20539;-63
2021/09/27 09:59:01;;;;;;;10.15;4.93;;;23.90;99.90;;;;;;5072033;28;20607;-63
2021/09/27 10:01:30;;;;;;;6.60;5.20;;;23.90;99.90;;;;;;5072546;28;20287;-63
2021/09/27 10:04:00;;;;;;;6.60;4.70;;;23.90;99.90;;;;;;5072381;28;20235;-63
2021/09/27 10:06:37;;;;;;;5.15;4.57;;;23.90;99.90;;;;;;5072296;28;20232;-63
2021/09/27 10:09:07;;;;;;;4.78;4.07;;;24.00;99.90;;;;;;5072037;28;20228;-63
2021/09/27 10:11:37;;;;;;;5.07;3.85;;;24.10;99.90;;;;;;5071925;28;20205;-63
2021/09/27 10:14:21;;;;;;;4.30;3.90;;;24.20;99.90;;;;;;5095650;22;20264;-70
2021/09/27 10:16:52;;;;;;;5.47;4.28;;;24.30;99.90;;;;;;5071587;28;20209;-70
2021/09/27 10:19:25;;;;;;;7.80;4.28;;;24.50;99.90;;;;;;5071544;28;20209;-70
2021/09/27 10:21:59;;;;;;;5.07;3.90;;;24.80;99.90;;;;;;5071635;28;20208;-69
2021/09/27 10:24:34;;;;;;;4.25;3.60;;;25.10;99.90;;;;;;5071318;28;20323;-69
2021/09/27 10:27:02;;;;;;;4.88;3.90;;;25.40;99.90;;;;;;5071652;28;20212;-69
2021/09/27 10:29:31;;;;;;;4.53;3.63;;;25.60;99.90;;;;;;5071363;28;20205;-69
2021/09/27 10:32:06;;;;;;;5.70;3.75;;;25.70;99.90;;;;;;5071334;28;20205;-69
2021/09/27 10:34:34;;;;;;;5.25;3.80;;;25.70;99.90;;;;;;5071189;28;20224;-69
2021/09/27 10:37:09;;;;;;;6.43;4.10;;;25.50;99.90;;;;;;5071348;28;20290;-69
2021/09/27 10:39:36;;;;;;;4.60;4.07;;;25.10;99.90;;;;;;5070992;28;20204;-68
2021/09/27 10:42:06;;;;;;;5.50;3.80;;;24.80;99.90;;;;;;5071283;28;20571;-68
2021/09/27 10:44:44;;;;;;;4.75;3.95;;;24.40;99.90;;;;;;5071070;28;20224;-70
2021/09/27 10:47:15;;;;;;;5.43;3.75;;;24.20;99.90;;;;;;5071583;28;20209;-69
2021/09/27 10:49:46;;;;;;;4.22;3.67;;;24.10;99.90;;;;;;5070860;28;20262;-69
2021/09/27 10:52:36;;;;;;;4.45;3.67;;;24.20;99.90;;;;;;5071477;28;20209;-70
2021/09/27 10:55:13;;;;;;;4.13;3.50;;;24.20;99.90;;;;;;5071371;28;20708;-69
2021/09/27 10:57:48;;;;;;;5.55;3.63;;;24.10;99.90;;;;;;5072715;28;20204;-70
2021/09/27 11:00:19;;;;;;;4.53;3.35;;;24.30;99.90;;;;;;5071202;28;20211;-71
2021/09/27 11:02:51;;;;;;;5.55;3.13;;;24.40;99.90;;;;;;5070955;28;20204;-70
2021/09/27 11:05:34;;;;;;;3.53;3.10;;;24.50;99.90;;;;;;5070113;28;20232;-70
2021/09/27 11:08:09;;;;;;;3.30;3.00;;;24.70;99.90;;;;;;5071185;28;20262;-70
2021/09/27 11:10:44;;;;;;;5.18;3.08;;;24.70;99.90;;;;;;5071280;28;20208;-69
2021/09/27 11:13:29;;;;;;;4.25;2.63;;;24.80;99.90;;;;;;5070440;28;20201;-69
2021/09/27 11:15:58;;;;;;;3.72;2.90;;;24.80;99.90;;;;;;5070708;28;20292;-70
2021/09/27 11:18:29;;;;;;;3.50;2.65;;;24.70;99.90;;;;;;5070805;28;20205;-70
2021/09/27 11:21:18;;;;;;;4.32;2.70;;;24.70;99.90;;;;;;5070726;28;20687;-70
2021/09/27 11:23:49;;;;;;;4.90;2.70;;;24.60;99.90;;;;;;5071002;28;20350;-70
2021/09/27 11:26:36;;;;;;;3.60;2.75;;;24.60;99.90;;;;;;5071074;28;20578;-70
2021/09/27 11:29:29;;;;;;;5.32;2.70;;;24.60;99.90;;;;;;5070714;28;20295;-70
2021/09/27 11:32:29;;;;;;;4.45;2.72;;;24.70;99.90;;;;;;5070582;28;20282;-70
2021/09/27 11:35:02;;;;;;;3.50;2.67;;;24.80;99.90;;;;;;5030179;28;20228;-70
2021/09/27 11:37:33;;;;;;;4.85;2.70;;;24.80;99.90;;;;;;5070775;28;20284;-70
2021/09/27 11:40:30;;;;;;;3.47;2.53;;;24.60;99.90;;;;;;5070478;28;20707;-69
2021/09/27 11:43:13;;;;;;;4.20;2.65;;;24.70;99.90;;;;;;5070773;28;20204;-69
2021/09/27 11:45:53;;;;;;;4.45;2.78;;;25.00;99.90;;;;;;5070393;28;20516;-69
2021/09/27 11:48:47;;;;;;;4.63;2.50;;;25.30;99.90;;;;;;5070462;28;20212;-66
2021/09/27 11:51:24;;;;;;;2.58;2.38;;;25.20;99.90;;;;;;5070530;28;20201;-69
2021/09/27 11:54:02;;;;;;;3.13;2.30;;;25.30;99.90;;;;;;5070301;28;20225;-69
2021/09/27 11:56:38;;;;;;;3.70;2.42;;;25.40;99.90;;;;;;5070645;28;20299;-69
2021/09/27 11:59:10;;;;;;;4.72;2.80;;;25.50;99.90;;;;;;5070684;28;20557;-69
2021/09/27 12:01:56;;;;;;;3.65;2.33;;;25.60;99.90;;;;;;5070711;28;20204;-69
2021/09/27 12:04:39;;;;;;;3.70;2.40;;;25.70;99.90;;;;;;5070746;28;20233;-69
2021/09/27 12:07:11;;;;;;;2.55;2.35;;;25.50;99.90;;;;;;5070667;28;20216;-69
2021/09/27 12:09:42;;;;;;;4.68;2.42;;;25.60;99.90;;;;;;5070727;28;20589;-68
2021/09/27 12:12:21;;;;;;;5.80;2.70;;;25.50;99.90;;;;;;5070780;28;20201;-68
2021/09/27 12:14:50;;;;;;;3.22;2.60;;;25.40;99.90;;;;;;5070641;28;20229;-68
2021/09/27 12:17:20;;;;;;;3.20;2.10;;;25.50;99.90;;;;;;5074135;28;20211;-68
2021/09/27 12:19:50;;;;;;;4.40;2.60;;;25.60;99.90;;;;;;5073856;28;20239;-68
2021/09/27 12:22:22;;;;;;;4.18;3.25;;;25.60;99.90;;;;;;5074196;28;20208;-69
2021/09/27 12:24:51;;;;;;;4.00;2.20;;;25.60;99.90;;;;;;5073786;28;20232;-68
2021/09/27 12:27:22;;;;;;;2.65;2.45;;;25.60;99.90;;;;;;5074036;28;20209;-68
2021/09/27 12:29:56;;;;;;;5.47;2.58;;;25.80;99.90;;;;;;5073623;28;20227;-69
2021/09/27 12:32:26;;;;;;;3.55;2.45;;;26.00;99.90;;;;;;5073648;28;20268;-68
2021/09/27 12:34:53;;;;;;;5.43;2.40;;;26.30;99.90;;;;;;5073255;28;20225;-69
2021/09/27 12:37:22;;;;;;;3.90;2.40;;;26.50;99.90;;;;;;5074040;28;20216;-68
2021/09/27 12:39:49;;;;;;;5.05;2.53;;;26.60;99.90;;;;;;5073664;28;20205;-68
2021/09/27 12:42:21;;;;;;;2.70;2.10;;;26.70;99.90;;;;;;5074058;28;20205;-68
2021/09/27 12:44:53;;;;;;;2.88;2.35;;;26.70;99.90;;;;;;5073350;28;20228;-68
2021/09/27 12:47:20;;;;;;;2.60;2.40;;;26.60;99.70;;;;;;5073275;28;20236;-68
2021/09/27 12:49:52;;;;;;;3.65;2.38;;;26.60;99.70;;;;;;5073546;28;20232;-68
2021/09/27 12:52:27;;;;;;;3.15;2.60;;;26.60;99.50;;;;;;5073771;28;20627;-69
2021/09/27 12:54:55;;;;;;;3.75;2.42;;;26.60;99.90;;;;;;5073111;28;20223;-68
2021/09/27 12:57:27;;;;;;;4.05;2.60;;;26.60;99.90;;;;;;5073227;28;20201;-68
2021/09/27 12:59:55;;;;;;;3.03;2.42;;;26.80;99.30;;;;;;5072791;28;20216;-69
2021/09/27 13:02:26;;;;;;;4.68;3.95;;;26.90;98.90;;;;;;5073226;28;20209;-68
2021/09/27 13:04:54;;;;;;;4.20;3.80;;;27.10;99.10;;;;;;5072865;28;20232;-68
2021/09/27 13:07:23;;;;;;;4.30;2.80;;;27.20;98.80;;;;;;5073312;28;20208;-68
2021/09/27 13:10:02;;;;;;;3.80;2.60;;;27.30;98.10;;;;;;5072831;28;20471;-69
2021/09/27 13:12:34;;;;;;;4.35;3.22;;;27.40;98.10;;;;;;5072768;28;20216;-69
2021/09/27 13:15:05;;;;;;;4.70;3.13;;;27.50;97.80;;;;;;5072670;28;20252;-68